Terminal Aerodrome Forecast
Issued by NWS

Home | Current Version | Previous Version | Text Only | Print | Product List | Glossary On
Versions: 1 2 3 4 5 6 7 8 9 10 11 12 13 14 15 16 17 18 19 20 21
000
FTUS42 KFFC 201500 AAA
TAFRYY
TAF AMD
KRYY 201516Z 2015/2112 08012G22KT P6SM FEW045
     FM202000 07008KT P6SM SCT050
     FM210000 06003KT P6SM SKC=

USA.gov is the U.S. government's official web portal to all federal, state and local government web resources and services.